sensor_id;sensor_type;location;lat;lon;timestamp;P1;durP1;ratioP1;P2;durP2;ratioP2
72573;SDS011;60603;52.548;13.420;2023-05-01T00:02:23;10.93;;;5.35;;
72573;SDS011;60603;52.548;13.420;2023-05-01T00:04:48;10.85;;;5.50;;
72573;SDS011;60603;52.548;13.420;2023-05-01T00:07:14;11.52;;;5.75;;
72573;SDS011;60603;52.548;13.420;2023-05-01T00:09:40;11.93;;;6.10;;
72573;SDS011;60603;52.548;13.420;2023-05-01T00:12:06;9.70;;;4.78;;
72573;SDS011;60603;52.548;13.420;2023-05-01T00:14:32;16.00;;;5.53;;
72573;SDS011;60603;52.548;13.420;2023-05-01T00:16:57;9.27;;;5.38;;
72573;SDS011;60603;52.548;13.420;2023-05-01T00:19:23;11.95;;;5.72;;
72573;SDS011;60603;52.548;13.420;2023-05-01T00:21:49;8.35;;;5.30;;
72573;SDS011;60603;52.548;13.420;2023-05-01T00:24:16;10.15;;;5.03;;
72573;SDS011;60603;52.548;13.420;2023-05-01T00:26:42;12.75;;;4.72;;
72573;SDS011;60603;52.548;13.420;2023-05-01T00:29:08;10.63;;;4.78;;
72573;SDS011;60603;52.548;13.420;2023-05-01T00:31:34;9.60;;;4.70;;
72573;SDS011;60603;52.548;13.420;2023-05-01T00:34:00;8.90;;;4.05;;
72573;SDS011;60603;52.548;13.420;2023-05-01T00:36:25;8.55;;;4.07;;
72573;SDS011;60603;52.548;13.420;2023-05-01T00:38:51;9.57;;;4.53;;
72573;SDS011;60603;52.548;13.420;2023-05-01T00:41:17;9.02;;;3.83;;
72573;SDS011;60603;52.548;13.420;2023-05-01T00:43:43;8.65;;;3.80;;
72573;SDS011;60603;52.548;13.420;2023-05-01T00:46:08;8.57;;;4.18;;
72573;SDS011;60603;52.548;13.420;2023-05-01T00:48:35;8.65;;;4.05;;
72573;SDS011;60603;52.548;13.420;2023-05-01T00:51:03;8.10;;;3.78;;
72573;SDS011;60603;52.548;13.420;2023-05-01T00:53:31;9.70;;;3.63;;
72573;SDS011;60603;52.548;13.420;2023-05-01T00:55:57;10.32;;;4.30;;
72573;SDS011;60603;52.548;13.420;2023-05-01T00:58:24;10.98;;;4.10;;
72573;SDS011;60603;52.548;13.420;2023-05-01T01:00:49;12.05;;;4.25;;
72573;SDS011;60603;52.548;13.420;2023-05-01T01:03:16;9.20;;;4.10;;
72573;SDS011;60603;52.548;13.420;2023-05-01T01:05:45;9.15;;;3.88;;
72573;SDS011;60603;52.548;13.420;2023-05-01T01:08:22;10.93;;;4.15;;
72573;SDS011;60603;52.548;13.420;2023-05-01T01:10:56;8.95;;;3.88;;
72573;SDS011;60603;52.548;13.420;2023-05-01T01:13:51;8.82;;;4.05;;
72573;SDS011;60603;52.548;13.420;2023-05-01T01:16:22;8.65;;;3.50;;
72573;SDS011;60603;52.548;13.420;2023-05-01T01:21:37;7.53;;;3.95;;
72573;SDS011;60603;52.548;13.420;2023-05-01T01:24:11;10.02;;;4.13;;
72573;SDS011;60603;52.548;13.420;2023-05-01T01:30:18;12.90;;;4.15;;
72573;SDS011;60603;52.548;13.420;2023-05-01T01:33:12;10.23;;;4.20;;
72573;SDS011;60603;52.548;13.420;2023-05-01T01:35:45;10.57;;;4.43;;
72573;SDS011;60603;52.548;13.420;2023-05-01T01:38:16;9.15;;;4.32;;
72573;SDS011;60603;52.548;13.420;2023-05-01T01:40:57;6.97;;;3.53;;
72573;SDS011;60603;52.548;13.420;2023-05-01T01:43:26;7.15;;;3.67;;
72573;SDS011;60603;52.548;13.420;2023-05-01T01:45:56;10.00;;;4.78;;
72573;SDS011;60603;52.548;13.420;2023-05-01T01:48:25;8.90;;;4.05;;
72573;SDS011;60603;52.548;13.420;2023-05-01T01:50:58;11.40;;;4.65;;
72573;SDS011;60603;52.548;13.420;2023-05-01T01:53:25;9.77;;;3.90;;
72573;SDS011;60603;52.548;13.420;2023-05-01T01:55:53;9.20;;;4.55;;
72573;SDS011;60603;52.548;13.420;2023-05-01T01:58:19;7.60;;;3.97;;
72573;SDS011;60603;52.548;13.420;2023-05-01T02:00:49;9.63;;;4.05;;
72573;SDS011;60603;52.548;13.420;2023-05-01T02:03:15;9.05;;;4.18;;
72573;SDS011;60603;52.548;13.420;2023-05-01T02:05:41;11.07;;;3.80;;
72573;SDS011;60603;52.548;13.420;2023-05-01T02:08:08;11.25;;;4.60;;
72573;SDS011;60603;52.548;13.420;2023-05-01T02:10:36;9.10;;;4.28;;
72573;SDS011;60603;52.548;13.420;2023-05-01T02:13:02;10.55;;;4.43;;
72573;SDS011;60603;52.548;13.420;2023-05-01T02:15:28;7.95;;;3.72;;
72573;SDS011;60603;52.548;13.420;2023-05-01T02:17:54;8.98;;;3.80;;
72573;SDS011;60603;52.548;13.420;2023-05-01T02:20:20;9.32;;;3.92;;
72573;SDS011;60603;52.548;13.420;2023-05-01T02:22:46;10.68;;;4.63;;
72573;SDS011;60603;52.548;13.420;2023-05-01T02:25:13;11.23;;;4.32;;
72573;SDS011;60603;52.548;13.420;2023-05-01T02:27:42;8.60;;;4.25;;
72573;SDS011;60603;52.548;13.420;2023-05-01T02:30:11;11.60;;;4.75;;
72573;SDS011;60603;52.548;13.420;2023-05-01T02:32:36;10.38;;;3.83;;
72573;SDS011;60603;52.548;13.420;2023-05-01T02:35:02;8.15;;;4.00;;
72573;SDS011;60603;52.548;13.420;2023-05-01T02:37:28;9.40;;;3.95;;
72573;SDS011;60603;52.548;13.420;2023-05-01T02:39:55;10.43;;;3.78;;
72573;SDS011;60603;52.548;13.420;2023-05-01T02:42:21;7.95;;;3.50;;
72573;SDS011;60603;52.548;13.420;2023-05-01T02:44:59;9.52;;;3.38;;
72573;SDS011;60603;52.548;13.420;2023-05-01T02:47:27;10.88;;;3.90;;
72573;SDS011;60603;52.548;13.420;2023-05-01T02:49:55;8.55;;;3.67;;
72573;SDS011;60603;52.548;13.420;2023-05-01T02:52:20;11.45;;;4.10;;
72573;SDS011;60603;52.548;13.420;2023-05-01T02:54:47;7.40;;;3.45;;
72573;SDS011;60603;52.548;13.420;2023-05-01T02:57:15;10.73;;;3.83;;
72573;SDS011;60603;52.548;13.420;2023-05-01T02:59:41;9.07;;;4.07;;
72573;SDS011;60603;52.548;13.420;2023-05-01T03:02:07;8.63;;;3.60;;
72573;SDS011;60603;52.548;13.420;2023-05-01T03:04:33;10.15;;;3.60;;
72573;SDS011;60603;52.548;13.420;2023-05-01T03:06:59;7.05;;;3.40;;
72573;SDS011;60603;52.548;13.420;2023-05-01T03:09:25;6.93;;;3.60;;
72573;SDS011;60603;52.548;13.420;2023-05-01T03:11:50;9.20;;;3.50;;
72573;SDS011;60603;52.548;13.420;2023-05-01T03:14:16;7.07;;;3.40;;
72573;SDS011;60603;52.548;13.420;2023-05-01T03:16:42;8.18;;;3.63;;
72573;SDS011;60603;52.548;13.420;2023-05-01T03:19:08;8.18;;;3.88;;
72573;SDS011;60603;52.548;13.420;2023-05-01T03:21:35;9.35;;;3.90;;
72573;SDS011;60603;52.548;13.420;2023-05-01T03:24:01;10.20;;;3.42;;
72573;SDS011;60603;52.548;13.420;2023-05-01T03:26:27;11.02;;;3.90;;
72573;SDS011;60603;52.548;13.420;2023-05-01T03:28:54;9.30;;;3.95;;
72573;SDS011;60603;52.548;13.420;2023-05-01T03:31:20;8.48;;;3.67;;
72573;SDS011;60603;52.548;13.420;2023-05-01T03:33:46;8.40;;;3.70;;
72573;SDS011;60603;52.548;13.420;2023-05-01T03:36:12;10.40;;;3.70;;
72573;SDS011;60603;52.548;13.420;2023-05-01T03:38:38;7.05;;;3.53;;
72573;SDS011;60603;52.548;13.420;2023-05-01T03:41:03;10.35;;;3.83;;
72573;SDS011;60603;52.548;13.420;2023-05-01T03:43:30;8.45;;;3.90;;
72573;SDS011;60603;52.548;13.420;2023-05-01T03:45:56;8.68;;;3.53;;
72573;SDS011;60603;52.548;13.420;2023-05-01T03:48:22;9.45;;;4.18;;
72573;SDS011;60603;52.548;13.420;2023-05-01T03:50:49;6.88;;;3.72;;
72573;SDS011;60603;52.548;13.420;2023-05-01T03:53:15;9.02;;;4.32;;
72573;SDS011;60603;52.548;13.420;2023-05-01T03:55:42;8.10;;;3.25;;
72573;SDS011;60603;52.548;13.420;2023-05-01T03:58:08;8.57;;;3.28;;
72573;SDS011;60603;52.548;13.420;2023-05-01T04:00:35;11.90;;;3.65;;
72573;SDS011;60603;52.548;13.420;2023-05-01T04:03:01;7.75;;;3.58;;
72573;SDS011;60603;52.548;13.420;2023-05-01T04:05:28;7.78;;;3.90;;
72573;SDS011;60603;52.548;13.420;2023-05-01T04:07:55;8.43;;;4.20;;
72573;SDS011;60603;52.548;13.420;2023-05-01T04:10:21;8.50;;;3.67;;
72573;SDS011;60603;52.548;13.420;2023-05-01T04:12:46;9.20;;;3.67;;
72573;SDS011;60603;52.548;13.420;2023-05-01T04:15:12;8.07;;;3.75;;
72573;SDS011;60603;52.548;13.420;2023-05-01T04:17:38;10.82;;;4.15;;
72573;SDS011;60603;52.548;13.420;2023-05-01T04:20:04;7.55;;;3.42;;
72573;SDS011;60603;52.548;13.420;2023-05-01T04:22:31;7.90;;;3.63;;
72573;SDS011;60603;52.548;13.420;2023-05-01T04:24:57;12.48;;;3.47;;
72573;SDS011;60603;52.548;13.420;2023-05-01T04:27:23;7.13;;;3.42;;
72573;SDS011;60603;52.548;13.420;2023-05-01T04:29:49;9.00;;;3.50;;
72573;SDS011;60603;52.548;13.420;2023-05-01T04:32:15;10.25;;;4.22;;
72573;SDS011;60603;52.548;13.420;2023-05-01T04:34:41;7.60;;;3.08;;
72573;SDS011;60603;52.548;13.420;2023-05-01T04:37:08;7.78;;;3.28;;
72573;SDS011;60603;52.548;13.420;2023-05-01T04:39:34;12.13;;;3.63;;
72573;SDS011;60603;52.548;13.420;2023-05-01T04:42:01;9.02;;;3.47;;
72573;SDS011;60603;52.548;13.420;2023-05-01T04:44:29;6.40;;;2.92;;
72573;SDS011;60603;52.548;13.420;2023-05-01T04:46:55;8.15;;;2.88;;
72573;SDS011;60603;52.548;13.420;2023-05-01T04:49:21;11.90;;;3.85;;
72573;SDS011;60603;52.548;13.420;2023-05-01T04:51:47;9.15;;;3.60;;
72573;SDS011;60603;52.548;13.420;2023-05-01T04:54:13;6.80;;;3.55;;
72573;SDS011;60603;52.548;13.420;2023-05-01T04:56:38;8.90;;;3.40;;
72573;SDS011;60603;52.548;13.420;2023-05-01T04:59:04;6.30;;;3.20;;
72573;SDS011;60603;52.548;13.420;2023-05-01T05:01:30;7.93;;;3.10;;
72573;SDS011;60603;52.548;13.420;2023-05-01T05:03:55;7.90;;;3.25;;
72573;SDS011;60603;52.548;13.420;2023-05-01T05:06:21;8.75;;;3.50;;
72573;SDS011;60603;52.548;13.420;2023-05-01T05:08:47;8.68;;;3.35;;
72573;SDS011;60603;52.548;13.420;2023-05-01T05:11:16;5.95;;;2.97;;
72573;SDS011;60603;52.548;13.420;2023-05-01T05:13:43;6.88;;;3.20;;
72573;SDS011;60603;52.548;13.420;2023-05-01T05:16:09;7.68;;;3.22;;
72573;SDS011;60603;52.548;13.420;2023-05-01T05:18:36;6.45;;;3.15;;
72573;SDS011;60603;52.548;13.420;2023-05-01T05:21:02;9.38;;;3.30;;
72573;SDS011;60603;52.548;13.420;2023-05-01T05:23:31;10.75;;;3.80;;
72573;SDS011;60603;52.548;13.420;2023-05-01T05:25:58;8.80;;;2.97;;
72573;SDS011;60603;52.548;13.420;2023-05-01T05:28:25;8.85;;;3.10;;
72573;SDS011;60603;52.548;13.420;2023-05-01T05:30:55;6.50;;;2.92;;
72573;SDS011;60603;52.548;13.420;2023-05-01T05:33:21;7.07;;;3.17;;
72573;SDS011;60603;52.548;13.420;2023-05-01T05:35:52;11.15;;;3.30;;
72573;SDS011;60603;52.548;13.420;2023-05-01T05:38:18;7.10;;;3.42;;
72573;SDS011;60603;52.548;13.420;2023-05-01T05:40:44;8.52;;;3.25;;
72573;SDS011;60603;52.548;13.420;2023-05-01T05:43:10;7.65;;;2.80;;
72573;SDS011;60603;52.548;13.420;2023-05-01T05:45:37;5.82;;;3.25;;
72573;SDS011;60603;52.548;13.420;2023-05-01T05:48:02;8.15;;;3.40;;
72573;SDS011;60603;52.548;13.420;2023-05-01T05:50:29;10.38;;;3.42;;
72573;SDS011;60603;52.548;13.420;2023-05-01T05:52:54;6.30;;;2.83;;
72573;SDS011;60603;52.548;13.420;2023-05-01T05:55:20;7.30;;;3.03;;
72573;SDS011;60603;52.548;13.420;2023-05-01T05:57:46;7.60;;;3.10;;
72573;SDS011;60603;52.548;13.420;2023-05-01T06:00:12;6.88;;;2.95;;
72573;SDS011;60603;52.548;13.420;2023-05-01T06:02:38;7.30;;;2.97;;
72573;SDS011;60603;52.548;13.420;2023-05-01T06:05:04;7.68;;;3.22;;
72573;SDS011;60603;52.548;13.420;2023-05-01T06:07:30;9.32;;;3.42;;
72573;SDS011;60603;52.548;13.420;2023-05-01T06:09:56;10.90;;;3.67;;
72573;SDS011;60603;52.548;13.420;2023-05-01T06:12:28;5.95;;;2.78;;
72573;SDS011;60603;52.548;13.420;2023-05-01T06:14:54;8.48;;;2.90;;
72573;SDS011;60603;52.548;13.420;2023-05-01T06:17:20;11.77;;;3.22;;
72573;SDS011;60603;52.548;13.420;2023-05-01T06:19:46;9.48;;;3.33;;
72573;SDS011;60603;52.548;13.420;2023-05-01T06:22:12;9.40;;;3.10;;
72573;SDS011;60603;52.548;13.420;2023-05-01T06:24:37;6.47;;;3.08;;
72573;SDS011;60603;52.548;13.420;2023-05-01T06:27:05;8.10;;;2.83;;
72573;SDS011;60603;52.548;13.420;2023-05-01T06:29:31;8.77;;;2.90;;
72573;SDS011;60603;52.548;13.420;2023-05-01T06:31:57;9.00;;;3.13;;
72573;SDS011;60603;52.548;13.420;2023-05-01T06:34:22;5.85;;;2.88;;
72573;SDS011;60603;52.548;13.420;2023-05-01T06:36:48;5.95;;;2.70;;
72573;SDS011;60603;52.548;13.420;2023-05-01T06:39:14;5.03;;;2.80;;
72573;SDS011;60603;52.548;13.420;2023-05-01T06:41:39;7.95;;;3.13;;
72573;SDS011;60603;52.548;13.420;2023-05-01T06:44:05;8.70;;;2.80;;
72573;SDS011;60603;52.548;13.420;2023-05-01T06:46:34;8.55;;;3.28;;
72573;SDS011;60603;52.548;13.420;2023-05-01T06:49:00;6.13;;;3.00;;
72573;SDS011;60603;52.548;13.420;2023-05-01T06:51:25;8.02;;;2.95;;
72573;SDS011;60603;52.548;13.420;2023-05-01T06:53:52;7.57;;;3.00;;
72573;SDS011;60603;52.548;13.420;2023-05-01T06:56:17;5.95;;;2.80;;
72573;SDS011;60603;52.548;13.420;2023-05-01T06:58:43;7.10;;;3.00;;
72573;SDS011;60603;52.548;13.420;2023-05-01T07:01:08;6.55;;;2.88;;
72573;SDS011;60603;52.548;13.420;2023-05-01T07:03:34;7.68;;;2.92;;
72573;SDS011;60603;52.548;13.420;2023-05-01T07:06:00;6.93;;;3.00;;
72573;SDS011;60603;52.548;13.420;2023-05-01T07:08:26;7.57;;;3.00;;
72573;SDS011;60603;52.548;13.420;2023-05-01T07:10:52;6.30;;;2.67;;
72573;SDS011;60603;52.548;13.420;2023-05-01T07:13:18;6.68;;;3.10;;
72573;SDS011;60603;52.548;13.420;2023-05-01T07:15:44;7.85;;;3.35;;
72573;SDS011;60603;52.548;13.420;2023-05-01T07:18:14;10.40;;;3.13;;
72573;SDS011;60603;52.548;13.420;2023-05-01T07:20:41;8.45;;;3.42;;
72573;SDS011;60603;52.548;13.420;2023-05-01T07:23:07;7.30;;;3.63;;
72573;SDS011;60603;52.548;13.420;2023-05-01T07:25:34;7.07;;;2.55;;
72573;SDS011;60603;52.548;13.420;2023-05-01T07:28:02;6.57;;;2.60;;
72573;SDS011;60603;52.548;13.420;2023-05-01T07:30:29;6.50;;;3.05;;
72573;SDS011;60603;52.548;13.420;2023-05-01T07:32:57;5.63;;;2.65;;
72573;SDS011;60603;52.548;13.420;2023-05-01T07:35:23;5.60;;;2.95;;
72573;SDS011;60603;52.548;13.420;2023-05-01T07:37:49;7.03;;;2.65;;
72573;SDS011;60603;52.548;13.420;2023-05-01T07:40:16;7.07;;;2.25;;
72573;SDS011;60603;52.548;13.420;2023-05-01T07:42:42;9.52;;;2.92;;
72573;SDS011;60603;52.548;13.420;2023-05-01T07:45:08;6.20;;;3.28;;
72573;SDS011;60603;52.548;13.420;2023-05-01T07:47:34;6.22;;;2.40;;
72573;SDS011;60603;52.548;13.420;2023-05-01T07:50:01;5.97;;;2.53;;
72573;SDS011;60603;52.548;13.420;2023-05-01T07:52:27;6.43;;;2.50;;
72573;SDS011;60603;52.548;13.420;2023-05-01T07:54:53;5.35;;;2.30;;
72573;SDS011;60603;52.548;13.420;2023-05-01T07:57:19;10.32;;;3.22;;
72573;SDS011;60603;52.548;13.420;2023-05-01T07:59:44;8.85;;;2.58;;
72573;SDS011;60603;52.548;13.420;2023-05-01T08:02:10;6.60;;;3.10;;
72573;SDS011;60603;52.548;13.420;2023-05-01T08:04:37;7.20;;;2.83;;
72573;SDS011;60603;52.548;13.420;2023-05-01T08:07:04;8.27;;;2.47;;
72573;SDS011;60603;52.548;13.420;2023-05-01T08:09:30;5.25;;;2.25;;
72573;SDS011;60603;52.548;13.420;2023-05-01T08:11:56;7.32;;;2.42;;
72573;SDS011;60603;52.548;13.420;2023-05-01T08:14:21;6.20;;;2.17;;
72573;SDS011;60603;52.548;13.420;2023-05-01T08:16:47;15.07;;;2.95;;
72573;SDS011;60603;52.548;13.420;2023-05-01T08:19:18;4.28;;;2.28;;
72573;SDS011;60603;52.548;13.420;2023-05-01T08:21:45;6.30;;;2.67;;
72573;SDS011;60603;52.548;13.420;2023-05-01T08:24:11;7.40;;;2.35;;
72573;SDS011;60603;52.548;13.420;2023-05-01T08:26:38;8.75;;;2.60;;
72573;SDS011;60603;52.548;13.420;2023-05-01T08:29:03;6.50;;;2.67;;
72573;SDS011;60603;52.548;13.420;2023-05-01T08:31:29;5.32;;;2.15;;
72573;SDS011;60603;52.548;13.420;2023-05-01T08:33:55;7.90;;;2.53;;
72573;SDS011;60603;52.548;13.420;2023-05-01T08:36:21;5.38;;;2.22;;
72573;SDS011;60603;52.548;13.420;2023-05-01T08:38:46;7.85;;;3.25;;
72573;SDS011;60603;52.548;13.420;2023-05-01T08:41:16;6.95;;;2.58;;
72573;SDS011;60603;52.548;13.420;2023-05-01T08:43:45;7.15;;;2.80;;
72573;SDS011;60603;52.548;13.420;2023-05-01T08:46:11;6.78;;;2.17;;
72573;SDS011;60603;52.548;13.420;2023-05-01T08:48:38;5.03;;;1.90;;
72573;SDS011;60603;52.548;13.420;2023-05-01T08:51:07;4.82;;;2.10;;
72573;SDS011;60603;52.548;13.420;2023-05-01T08:53:35;7.15;;;2.55;;
72573;SDS011;60603;52.548;13.420;2023-05-01T08:56:03;7.20;;;3.15;;
72573;SDS011;60603;52.548;13.420;2023-05-01T08:58:31;4.72;;;2.08;;
72573;SDS011;60603;52.548;13.420;2023-05-01T09:00:58;5.47;;;2.35;;
72573;SDS011;60603;52.548;13.420;2023-05-01T09:03:26;6.85;;;2.13;;
72573;SDS011;60603;52.548;13.420;2023-05-01T09:05:54;5.95;;;2.13;;
72573;SDS011;60603;52.548;13.420;2023-05-01T09:08:20;9.02;;;2.97;;
72573;SDS011;60603;52.548;13.420;2023-05-01T09:10:46;6.05;;;2.17;;
72573;SDS011;60603;52.548;13.420;2023-05-01T09:13:12;7.88;;;2.58;;
72573;SDS011;60603;52.548;13.420;2023-05-01T09:15:38;4.47;;;2.03;;
72573;SDS011;60603;52.548;13.420;2023-05-01T09:18:04;5.22;;;2.38;;
72573;SDS011;60603;52.548;13.420;2023-05-01T09:20:30;6.32;;;2.03;;
72573;SDS011;60603;52.548;13.420;2023-05-01T09:22:57;5.00;;;1.98;;
72573;SDS011;60603;52.548;13.420;2023-05-01T09:25:23;5.75;;;2.10;;
72573;SDS011;60603;52.548;13.420;2023-05-01T09:27:49;6.03;;;2.10;;
72573;SDS011;60603;52.548;13.420;2023-05-01T09:30:35;6.45;;;2.00;;
72573;SDS011;60603;52.548;13.420;2023-05-01T09:33:08;5.78;;;2.00;;
72573;SDS011;60603;52.548;13.420;2023-05-01T09:35:54;6.15;;;2.30;;
72573;SDS011;60603;52.548;13.420;2023-05-01T09:38:22;7.13;;;2.47;;
72573;SDS011;60603;52.548;13.420;2023-05-01T09:40:49;4.57;;;1.90;;
72573;SDS011;60603;52.548;13.420;2023-05-01T09:43:24;7.95;;;2.53;;
72573;SDS011;60603;52.548;13.420;2023-05-01T09:46:01;4.97;;;2.00;;
72573;SDS011;60603;52.548;13.420;2023-05-01T09:48:29;7.30;;;2.85;;
72573;SDS011;60603;52.548;13.420;2023-05-01T09:50:55;5.20;;;1.90;;
72573;SDS011;60603;52.548;13.420;2023-05-01T09:53:37;7.47;;;2.30;;
72573;SDS011;60603;52.548;13.420;2023-05-01T09:58:29;6.15;;;2.50;;
72573;SDS011;60603;52.548;13.420;2023-05-01T10:00:55;7.82;;;2.40;;
72573;SDS011;60603;52.548;13.420;2023-05-01T10:03:20;6.43;;;2.03;;
72573;SDS011;60603;52.548;13.420;2023-05-01T10:05:47;5.40;;;2.20;;
72573;SDS011;60603;52.548;13.420;2023-05-01T10:08:12;6.82;;;2.47;;
72573;SDS011;60603;52.548;13.420;2023-05-01T10:10:39;6.72;;;2.60;;
72573;SDS011;60603;52.548;13.420;2023-05-01T10:13:14;10.48;;;2.88;;
72573;SDS011;60603;52.548;13.420;2023-05-01T10:15:41;5.43;;;2.28;;
72573;SDS011;60603;52.548;13.420;2023-05-01T10:18:08;5.22;;;2.42;;
72573;SDS011;60603;52.548;13.420;2023-05-01T10:20:34;6.82;;;2.58;;
72573;SDS011;60603;52.548;13.420;2023-05-01T10:23:03;7.20;;;2.83;;
72573;SDS011;60603;52.548;13.420;2023-05-01T10:25:29;7.85;;;2.45;;
72573;SDS011;60603;52.548;13.420;2023-05-01T10:27:56;8.77;;;3.15;;
72573;SDS011;60603;52.548;13.420;2023-05-01T10:30:22;5.75;;;2.38;;
72573;SDS011;60603;52.548;13.420;2023-05-01T10:32:50;6.85;;;2.58;;
72573;SDS011;60603;52.548;13.420;2023-05-01T10:35:22;5.57;;;2.58;;
72573;SDS011;60603;52.548;13.420;2023-05-01T10:37:58;7.05;;;2.75;;
72573;SDS011;60603;52.548;13.420;2023-05-01T10:43:14;7.25;;;2.47;;
72573;SDS011;60603;52.548;13.420;2023-05-01T10:45:50;5.20;;;2.38;;
72573;SDS011;60603;52.548;13.420;2023-05-01T10:51:10;5.50;;;2.22;;
72573;SDS011;60603;52.548;13.420;2023-05-01T10:53:41;7.15;;;2.80;;
72573;SDS011;60603;52.548;13.420;2023-05-01T11:04:03;5.05;;;2.40;;
72573;SDS011;60603;52.548;13.420;2023-05-01T11:12:11;5.65;;;2.42;;
72573;SDS011;60603;52.548;13.420;2023-05-01T11:20:50;10.40;;;3.00;;
72573;SDS011;60603;52.548;13.420;2023-05-01T11:22:59;8.40;;;2.75;;
72573;SDS011;60603;52.548;13.420;2023-05-01T11:25:26;5.50;;;2.50;;
72573;SDS011;60603;52.548;13.420;2023-05-01T11:27:59;8.00;;;2.70;;
72573;SDS011;60603;52.548;13.420;2023-05-01T11:30:26;5.88;;;2.60;;
72573;SDS011;60603;52.548;13.420;2023-05-01T11:33:06;5.93;;;2.42;;
72573;SDS011;60603;52.548;13.420;2023-05-01T11:35:32;6.55;;;2.60;;
72573;SDS011;60603;52.548;13.420;2023-05-01T11:37:58;4.85;;;2.20;;
72573;SDS011;60603;52.548;13.420;2023-05-01T11:40:25;7.40;;;2.60;;
72573;SDS011;60603;52.548;13.420;2023-05-01T11:42:59;7.53;;;3.08;;
72573;SDS011;60603;52.548;13.420;2023-05-01T11:45:26;6.85;;;2.40;;
72573;SDS011;60603;52.548;13.420;2023-05-01T11:47:52;6.97;;;2.95;;
72573;SDS011;60603;52.548;13.420;2023-05-01T11:50:18;13.15;;;3.17;;
72573;SDS011;60603;52.548;13.420;2023-05-01T11:55:17;10.82;;;3.72;;
72573;SDS011;60603;52.548;13.420;2023-05-01T11:57:51;8.60;;;3.10;;
72573;SDS011;60603;52.548;13.420;2023-05-01T12:00:27;7.13;;;3.33;;
72573;SDS011;60603;52.548;13.420;2023-05-01T12:02:55;8.27;;;3.25;;
72573;SDS011;60603;52.548;13.420;2023-05-01T12:05:25;6.13;;;2.63;;
72573;SDS011;60603;52.548;13.420;2023-05-01T12:08:04;5.60;;;2.63;;
72573;SDS011;60603;52.548;13.420;2023-05-01T12:10:33;6.85;;;2.90;;
72573;SDS011;60603;52.548;13.420;2023-05-01T12:13:00;7.68;;;2.63;;
72573;SDS011;60603;52.548;13.420;2023-05-01T12:15:28;6.10;;;2.67;;
72573;SDS011;60603;52.548;13.420;2023-05-01T12:17:54;6.60;;;2.60;;
72573;SDS011;60603;52.548;13.420;2023-05-01T12:20:37;8.63;;;2.78;;
72573;SDS011;60603;52.548;13.420;2023-05-01T12:23:06;6.47;;;2.38;;
72573;SDS011;60603;52.548;13.420;2023-05-01T12:25:35;7.97;;;3.00;;
72573;SDS011;60603;52.548;13.420;2023-05-01T12:28:09;7.05;;;2.92;;
72573;SDS011;60603;52.548;13.420;2023-05-01T12:30:35;6.45;;;2.85;;
72573;SDS011;60603;52.548;13.420;2023-05-01T12:33:12;7.75;;;2.60;;
72573;SDS011;60603;52.548;13.420;2023-05-01T12:35:39;5.85;;;2.33;;
72573;SDS011;60603;52.548;13.420;2023-05-01T12:40:58;7.90;;;3.45;;
72573;SDS011;60603;52.548;13.420;2023-05-01T12:43:35;8.60;;;3.17;;
72573;SDS011;60603;52.548;13.420;2023-05-01T12:46:02;7.03;;;2.78;;
72573;SDS011;60603;52.548;13.420;2023-05-01T12:48:29;7.97;;;3.08;;
72573;SDS011;60603;52.548;13.420;2023-05-01T12:50:55;6.88;;;2.70;;
72573;SDS011;60603;52.548;13.420;2023-05-01T12:53:22;8.07;;;2.97;;
72573;SDS011;60603;52.548;13.420;2023-05-01T12:55:57;9.82;;;3.20;;
72573;SDS011;60603;52.548;13.420;2023-05-01T12:58:24;6.78;;;3.25;;
72573;SDS011;60603;52.548;13.420;2023-05-01T13:01:01;5.25;;;2.53;;
72573;SDS011;60603;52.548;13.420;2023-05-01T13:03:27;6.20;;;2.90;;
72573;SDS011;60603;52.548;13.420;2023-05-01T13:06:01;7.32;;;3.13;;
72573;SDS011;60603;52.548;13.420;2023-05-01T13:08:29;7.68;;;2.88;;
72573;SDS011;60603;52.548;13.420;2023-05-01T13:11:07;6.72;;;2.70;;
72573;SDS011;60603;52.548;13.420;2023-05-01T13:13:34;9.05;;;2.88;;
72573;SDS011;60603;52.548;13.420;2023-05-01T13:16:02;8.07;;;2.67;;
72573;SDS011;60603;52.548;13.420;2023-05-01T13:18:32;7.15;;;3.33;;
72573;SDS011;60603;52.548;13.420;2023-05-01T13:21:07;7.43;;;2.60;;
72573;SDS011;60603;52.548;13.420;2023-05-01T13:23:36;7.53;;;3.03;;
72573;SDS011;60603;52.548;13.420;2023-05-01T13:26:02;7.47;;;3.92;;
72573;SDS011;60603;52.548;13.420;2023-05-01T13:28:29;6.28;;;3.10;;
72573;SDS011;60603;52.548;13.420;2023-05-01T13:30:56;7.78;;;3.13;;
72573;SDS011;60603;52.548;13.420;2023-05-01T13:33:22;6.65;;;3.22;;
72573;SDS011;60603;52.548;13.420;2023-05-01T13:35:47;5.45;;;2.47;;
72573;SDS011;60603;52.548;13.420;2023-05-01T13:38:14;7.93;;;2.85;;
72573;SDS011;60603;52.548;13.420;2023-05-01T13:40:40;7.20;;;3.03;;
72573;SDS011;60603;52.548;13.420;2023-05-01T13:43:09;9.05;;;2.78;;
72573;SDS011;60603;52.548;13.420;2023-05-01T13:45:39;5.88;;;3.00;;
72573;SDS011;60603;52.548;13.420;2023-05-01T13:48:04;5.95;;;2.75;;
72573;SDS011;60603;52.548;13.420;2023-05-01T13:50:30;6.95;;;2.97;;
72573;SDS011;60603;52.548;13.420;2023-05-01T13:52:56;5.25;;;2.85;;
72573;SDS011;60603;52.548;13.420;2023-05-01T13:55:23;7.43;;;3.03;;
72573;SDS011;60603;52.548;13.420;2023-05-01T13:57:50;12.52;;;3.72;;
72573;SDS011;60603;52.548;13.420;2023-05-01T14:00:16;5.80;;;3.00;;
72573;SDS011;60603;52.548;13.420;2023-05-01T14:02:43;5.90;;;3.00;;
72573;SDS011;60603;52.548;13.420;2023-05-01T14:05:10;8.93;;;3.35;;
72573;SDS011;60603;52.548;13.420;2023-05-01T14:07:55;8.82;;;3.50;;
72573;SDS011;60603;52.548;13.420;2023-05-01T14:10:22;6.75;;;2.90;;
72573;SDS011;60603;52.548;13.420;2023-05-01T14:12:55;7.82;;;3.33;;
72573;SDS011;60603;52.548;13.420;2023-05-01T14:15:22;7.10;;;3.22;;
72573;SDS011;60603;52.548;13.420;2023-05-01T14:17:53;6.97;;;2.72;;
72573;SDS011;60603;52.548;13.420;2023-05-01T14:20:18;7.85;;;3.67;;
72573;SDS011;60603;52.548;13.420;2023-05-01T14:22:45;8.80;;;3.17;;
72573;SDS011;60603;52.548;13.420;2023-05-01T14:25:19;7.43;;;3.10;;
72573;SDS011;60603;52.548;13.420;2023-05-01T14:27:48;6.03;;;3.22;;
72573;SDS011;60603;52.548;13.420;2023-05-01T14:30:25;9.75;;;3.20;;
72573;SDS011;60603;52.548;13.420;2023-05-01T14:32:59;6.15;;;2.72;;
72573;SDS011;60603;52.548;13.420;2023-05-01T14:35:26;7.43;;;3.05;;
72573;SDS011;60603;52.548;13.420;2023-05-01T14:37:52;7.80;;;3.75;;
72573;SDS011;60603;52.548;13.420;2023-05-01T14:40:25;7.85;;;3.85;;
72573;SDS011;60603;52.548;13.420;2023-05-01T14:42:52;6.55;;;2.95;;
72573;SDS011;60603;52.548;13.420;2023-05-01T14:45:18;9.20;;;3.72;;
72573;SDS011;60603;52.548;13.420;2023-05-01T14:47:45;9.77;;;3.95;;
72573;SDS011;60603;52.548;13.420;2023-05-01T14:50:12;9.27;;;3.55;;
72573;SDS011;60603;52.548;13.420;2023-05-01T14:52:44;6.47;;;3.28;;
72573;SDS011;60603;52.548;13.420;2023-05-01T14:55:10;7.32;;;3.30;;
72573;SDS011;60603;52.548;13.420;2023-05-01T14:57:37;6.97;;;3.40;;
72573;SDS011;60603;52.548;13.420;2023-05-01T15:00:03;5.85;;;3.03;;
72573;SDS011;60603;52.548;13.420;2023-05-01T15:02:31;7.05;;;3.30;;
72573;SDS011;60603;52.548;13.420;2023-05-01T15:04:57;10.40;;;3.30;;
72573;SDS011;60603;52.548;13.420;2023-05-01T15:07:23;5.88;;;3.50;;
72573;SDS011;60603;52.548;13.420;2023-05-01T15:09:49;5.97;;;3.60;;
72573;SDS011;60603;52.548;13.420;2023-05-01T15:12:15;7.82;;;3.22;;
72573;SDS011;60603;52.548;13.420;2023-05-01T15:14:40;9.32;;;4.15;;
72573;SDS011;60603;52.548;13.420;2023-05-01T15:17:06;7.75;;;3.35;;